Nearby METAR Reports

 

KSJC - San Jose, California, USA
Distance from station: NE 14km
Updated: 06/10/2022 23:53
Mostly cloudy
Mostly cloudy
 Wind from NW
Wind: NW 19 km/h
Temperature: 26°C
Dew Point: 13°C
Humidity: 45%
Barometer: 1015.6 hPa
Clouds: Mostly cloudy
Visibility: 16 km
Cloud details: Mostly cloudy 5486 m
Mostly cloudy 7620 m
2022/10/06 21:53 KSJC 062153Z 32010KT 10SM BKN180 BKN250 26/13 A2999 RMK AO2 SLP156 T02560133
KNUQ - Moffett Nas/Mtn, California, USA
Distance from station: N 14km
Updated: 07/10/2022 00:15
Clear
Clear
 Wind from NNW
Wind: NNW 17 km/h
Temperature: 23°C
Dew Point: 15°C
Humidity: 61%
Barometer: 1015.9 hPa
Clouds: Clear
Visibility: 16 km
2022/10/06 22:15 KNUQ 062215Z AUTO 33009KT 10SM CLR 23/15 A3000 RMK AO2
 
KPAO - Palo Alto, California, USA
Distance from station: NNW 23km
Updated: 06/10/2022 23:47
Few Clouds
Few Clouds
 Wind from NNW
Wind: NNW 15 km/h
Temperature: 22°C
Dew Point: 16°C
Humidity: 69%
Barometer: 1016.3 hPa
Clouds: Few Clouds
Visibility: 16 km
Cloud details: Few Clouds 305 m
2022/10/06 21:47 KPAO 062147Z 33008KT 10SM FEW010 22/16 A3001
KRHV - San Jose/Reid, California, USA
Distance from station: ENE 19km
Updated: 06/10/2022 23:56
Partly cloudy
Partly cloudy
 Wind from NW
Wind: NW 13 km/h
Temperature: 28°C
Heat Index: 28°C
Dew Point: 14°C
Humidity: 42%
Barometer: 1015.6 hPa
Clouds: Partly cloudy
Visibility: 16 km
Cloud details: Partly cloudy 4877 m
2022/10/06 21:56 KRHV 062156Z 31007KT 10SM SCT160 28/14 A2999
 
KOAK - Oakland, California, USA
Distance from station: NNW 50km
Updated: 06/10/2022 23:53
Mostly cloudy
Mostly cloudy
 Wind from WNW
Wind: WNW 20 km/h
Temperature: 21°C
Dew Point: 14°C
Humidity: 64%
Barometer: 1016.6 hPa
Clouds: Mostly cloudy
Visibility: 16 km
Cloud details: Few Clouds 305 m
Partly cloudy 5486 m
Mostly cloudy 7315 m
2022/10/06 21:53 KOAK 062153Z 30011KT 10SM FEW010 SCT180 BKN240 21/14 A3002 RMK AO2 SLP165 T02060139
KSQL - San Carlos Airpo, California, USA
Distance from station: NW 34km
Updated: 06/10/2022 23:55
Mostly cloudy
Mostly cloudy
 Wind from NW
Wind: NW 15 km/h
Temperature: 22°C
Dew Point: 14°C
Humidity: 61%
Barometer: 1016.3 hPa
Clouds: Mostly cloudy
Visibility: 16 km
Cloud details: Mostly cloudy 6096 m
2022/10/06 21:55 KSQL 062155Z 32008KT 10SM BKN200 22/14 A3001
 
KSFO - San Francisco, California, USA
Distance from station: NW 49km
Updated: 06/10/2022 23:56
Mostly cloudy
Mostly cloudy
 Wind from NW
Wind: NW 33 km/h
Temperature: 19°C
Dew Point: 13°C
Humidity: 68%
Barometer: 1015.9 hPa
Clouds: Mostly cloudy
Visibility: 16 km
Cloud details: Few Clouds 122 m
Mostly cloudy 6096 m
2022/10/06 21:56 KSFO 062156Z 31018KT 10SM FEW004 BKN200 19/13 A3000 RMK AO2 SLP160 T01890128
KE16 - San Martin, California, USA
Distance from station: ESE 43km
Updated: 07/10/2022 00:15
Clear
Clear
 Wind from SE
Wind: SE 7 km/h
Temperature: 33°C
Dew Point: 9°C
Humidity: 23%
Barometer: 1015.2 hPa
Clouds: Clear
Visibility: 16 km
2022/10/06 22:15 KE16 062215Z AUTO 14004KT 10SM CLR 33/09 A2998 RMK AO2 PWINO PNO
 
KWVI - Watsonville, California, USA
Distance from station: SSE 44km
Updated: 06/10/2022 23:53
Clear
Clear
 Wind from SSW
Wind: SSW 15 km/h
Temperature: 18°C
Dew Point: 13°C
Humidity: 73%
Barometer: 1017.6 hPa
Clouds: Clear
Visibility: 16 km
2022/10/06 21:53 KWVI 062153Z AUTO 21008KT 10SM CLR 18/13 A3005 RMK AO2 SLP174 T01780128
KHAF - Half Moon Bay, California, USA
Distance from station: WNW 50km
Updated: 07/10/2022 00:15
Overcast
Overcast
 Wind from varies
Wind: varies 7 km/h
Temperature: 14°C
Dew Point: 14°C
Humidity: 100%
Barometer: 1017.9 hPa
Clouds: Overcast
Visibility: 13 km
Cloud details: Overcast 152 m
2022/10/06 22:15 KHAF 062215Z AUTO VRB04KT 8SM OVC005 14/14 A3006 RMK AO2
 
KHWD - Hayward, California, USA
Distance from station: N 44km
Updated: 06/10/2022 23:54
Clear
Clear
 Wind from W
Wind: W 17 km/h
Temperature: 23°C
Dew Point: 15°C
Humidity: 61%
Barometer: 1015.9 hPa
Clouds: Clear
Visibility: 16 km
2022/10/06 21:54 KHWD 062154Z 28009KT 10SM CLR 23/15 A3000 RMK AO2 SLP168 T02280150
KLVK - Livermore, California, USA
Distance from station: NNE 51km
Updated: 06/10/2022 23:53
Clear
Clear
 Wind from varies
Wind: varies 7 km/h
Temperature: 33°C
Dew Point: 9°C
Humidity: 23%
Barometer: 1014.9 hPa
Clouds: Clear
Visibility: 16 km
2022/10/06 21:53 KLVK 062153Z VRB04KT 10SM CLR 33/09 A2997 RMK AO2 SLP143 T03330089